createdAt,value
2023-08-26T00:00:03.403Z,983.2117
2023-08-26T00:01:02.310Z,982.977
2023-08-26T00:02:03.317Z,983.0719
2023-08-26T00:03:02.251Z,983.0787
2023-08-26T00:04:01.647Z,983.086
2023-08-26T00:05:02.130Z,983.0499
2023-08-26T00:06:03.147Z,983.065
2023-08-26T00:07:01.991Z,983.1237
2023-08-26T00:08:03.040Z,983.0357
2023-08-26T00:09:03.572Z,982.9047
2023-08-26T00:10:01.382Z,983.1168
2023-08-26T00:11:03.494Z,983.0064
2023-08-26T00:12:01.266Z,982.8445
2023-08-26T00:13:01.770Z,982.9531
2023-08-26T00:14:02.194Z,982.8929
2023-08-26T00:15:03.955Z,982.8547
2023-08-26T00:16:01.620Z,982.8313
2023-08-26T00:17:02.093Z,982.8376
2023-08-26T00:18:01.704Z,982.8376
2023-08-26T00:19:01.993Z,982.7071
2023-08-26T00:20:03.029Z,982.7506
2023-08-26T00:21:01.915Z,982.8136
2023-08-26T00:22:01.391Z,982.8063
2023-08-26T00:23:02.047Z,982.8425
2023-08-26T00:24:01.298Z,982.5862
2023-08-26T00:25:01.820Z,982.5568
2023-08-26T00:26:02.906Z,982.7036
2023-08-26T00:27:01.733Z,982.4981
2023-08-26T00:28:02.373Z,982.4981
2023-08-26T00:29:01.707Z,982.5568
2023-08-26T00:30:02.136Z,982.4394
2023-08-26T00:31:03.265Z,982.4756
2023-08-26T00:32:02.035Z,982.5118
2023-08-26T00:33:01.606Z,982.4085
2023-08-26T00:34:02.011Z,982.429
2023-08-26T00:35:04.706Z,982.3771
2023-08-26T00:36:01.883Z,982.2377
2023-08-26T00:37:01.390Z,982.405
2023-08-26T00:38:01.845Z,982.2566
2023-08-26T00:39:02.873Z,982.2855
2023-08-26T00:40:01.788Z,982.2336
2023-08-26T00:41:03.821Z,982.3065
2023-08-26T00:42:03.406Z,982.2913
2023-08-26T00:43:02.151Z,982.1738
2023-08-26T00:44:01.523Z,982.2976
2023-08-26T00:45:02.014Z,982.2824
2023-08-26T00:46:03.092Z,982.348
2023-08-26T00:47:03.635Z,982.391
2023-08-26T00:48:03.090Z,982.391
2023-08-26T00:49:03.494Z,982.2872
2023-08-26T00:50:02.921Z,982.3009
2023-08-26T00:51:01.773Z,982.292
2023-08-26T00:52:02.221Z,982.1178
2023-08-26T00:53:01.726Z,982.2626
2023-08-26T00:54:03.788Z,982.292
2023-08-26T00:55:02.292Z,982.1745
2023-08-26T00:56:03.698Z,982.2038
2023-08-26T00:57:03.163Z,982.1834
2023-08-26T00:58:01.998Z,982.3507
2023-08-26T00:59:01.431Z,982.292
2023-08-26T01:00:03.593Z,982.3214
2023-08-26T01:01:01.406Z,982.2401
2023-08-26T01:02:03.469Z,982.2904
2023-08-26T01:03:01.393Z,982.3267
2023-08-26T01:04:01.809Z,982.2904
2023-08-26T01:05:03.878Z,982.0848
2023-08-26T01:06:03.299Z,982.0848
2023-08-26T01:07:02.112Z,982.2904
2023-08-26T01:08:01.592Z,982.0848
2023-08-26T01:09:03.702Z,982.121
2023-08-26T01:10:03.186Z,982.0622
2023-08-26T01:11:01.953Z,982.2904
2023-08-26T01:12:01.400Z,982.1745
2023-08-26T01:13:03.728Z,982.2626
2023-08-26T01:14:01.335Z,982.2872
2023-08-26T01:15:03.497Z,982.1854
2023-08-26T01:17:03.377Z,982.1718
2023-08-26T01:18:02.278Z,982.3925
2023-08-26T01:19:03.306Z,982.3652
2023-08-26T01:20:02.156Z,982.3652
2023-08-26T01:21:01.592Z,982.2493
2023-08-26T01:22:03.636Z,982.2566
2023-08-26T01:23:03.148Z,982.3217
2023-08-26T01:24:03.575Z,982.2629
2023-08-26T01:25:01.412Z,982.4465
2023-08-26T01:26:01.935Z,982.5189
2023-08-26T01:27:01.363Z,982.3652
2023-08-26T01:28:03.485Z,982.512
2023-08-26T01:29:02.940Z,982.4685
2023-08-26T01:30:01.730Z,982.4979
2023-08-26T01:31:02.233Z,982.4323
2023-08-26T01:32:01.647Z,982.5136
2023-08-26T01:33:02.161Z,982.3898
2023-08-26T01:34:01.556Z,982.3462
2023-08-26T01:35:02.058Z,982.5518
2023-08-26T01:36:02.248Z,982.4202
2023-08-26T01:37:03.620Z,982.4652
2023-08-26T01:38:03.499Z,982.5171
2023-08-26T01:39:01.884Z,982.5034
2023-08-26T01:40:01.349Z,982.4604
2023-08-26T01:41:01.808Z,982.5186
2023-08-26T01:42:01.269Z,982.5054
2023-08-26T01:43:01.725Z,982.5054
2023-08-26T01:44:03.820Z,982.593
2023-08-26T01:45:01.666Z,982.5636
2023-08-26T01:46:02.131Z,982.6654
2023-08-26T01:47:03.218Z,982.8757
2023-08-26T01:48:02.025Z,982.5915
2023-08-26T01:49:03.129Z,982.6555
2023-08-26T01:50:01.948Z,982.7142
2023-08-26T01:51:01.374Z,982.6036
2023-08-26T01:52:01.847Z,982.6247
2023-08-26T01:53:01.334Z,982.7259
2023-08-26T01:54:01.796Z,982.7485
2023-08-26T01:55:02.244Z,982.7821
2023-08-26T01:56:01.765Z,982.8996
2023-08-26T01:57:03.804Z,982.7259
2023-08-26T01:58:01.618Z,982.7176
2023-08-26T01:59:02.060Z,982.7591
2023-08-26T02:00:01.511Z,982.8154
2023-08-26T02:01:03.606Z,982.9876
2023-08-26T02:02:03.089Z,983.0533
2023-08-26T02:03:03.579Z,983.0141
2023-08-26T02:04:02.937Z,982.8789
2023-08-26T02:05:03.373Z,982.8343
2023-08-26T02:06:03.848Z,982.9798
2023-08-26T02:07:01.665Z,982.9048
2023-08-26T02:08:02.143Z,982.8068
2023-08-26T02:09:01.621Z,982.8068
2023-08-26T02:10:02.083Z,982.6104
2023-08-26T02:11:01.614Z,982.9513
2023-08-26T02:12:03.715Z,983.0395
2023-08-26T02:13:01.439Z,982.891
2023-08-26T02:14:01.888Z,982.7925
2023-08-26T02:15:02.005Z,982.7978
2023-08-26T02:16:01.960Z,982.7244
2023-08-26T02:17:02.984Z,982.6204
2023-08-26T02:18:03.448Z,982.7297
2023-08-26T02:19:03.802Z,982.5154
2023-08-26T02:20:01.666Z,982.8124
2023-08-26T02:21:03.808Z,982.7473
2023-08-26T02:22:03.203Z,982.6296
2023-08-26T02:23:02.086Z,982.5276
2023-08-26T02:24:01.587Z,982.557
2023-08-26T02:25:02.027Z,982.5669
2023-08-26T02:26:01.456Z,982.6067
2023-08-26T02:27:02.003Z,982.6655
2023-08-26T02:28:01.398Z,982.6052
2023-08-26T02:29:03.505Z,982.434
2023-08-26T02:30:01.321Z,982.5448
2023-08-26T02:31:03.412Z,982.5238
2023-08-26T02:32:03.972Z,982.4875
2023-08-26T02:33:03.344Z,982.6414
2023-08-26T02:34:02.153Z,982.6052
2023-08-26T02:35:01.642Z,982.5111
2023-08-26T02:36:02.100Z,982.3955
2023-08-26T02:37:01.580Z,982.5803
2023-08-26T02:38:02.024Z,982.5892
2023-08-26T02:39:03.126Z,982.598
2023-08-26T02:40:01.962Z,982.6431
2023-08-26T02:41:01.389Z,982.6289
2023-08-26T02:42:03.500Z,982.7549
2023-08-26T02:43:02.970Z,982.6535
2023-08-26T02:44:01.742Z,982.5673
2023-08-26T02:45:02.246Z,982.6345
2023-08-26T02:46:01.762Z,982.5321
2023-08-26T02:47:03.791Z,982.8034
2023-08-26T02:48:01.673Z,982.7261
2023-08-26T02:49:03.693Z,982.6326
2023-08-26T02:50:03.230Z,982.4877
2023-08-26T02:51:01.995Z,982.5255
2023-08-26T02:52:03.098Z,982.5994
2023-08-26T02:53:03.594Z,982.6445
2023-08-26T02:54:01.340Z,982.5359
2023-08-26T02:55:03.432Z,982.4561
2023-08-26T02:56:01.404Z,982.4791
2023-08-26T02:57:01.773Z,982.5536
2023-08-26T02:58:03.800Z,982.4376
2023-08-26T02:59:01.643Z,982.5708
2023-08-26T03:00:02.100Z,982.5272
2023-08-26T03:01:01.615Z,982.5292
2023-08-26T03:02:03.649Z,982.7211
2023-08-26T03:03:01.638Z,982.612
2023-08-26T03:04:03.605Z,982.6707
2023-08-26T03:05:01.426Z,982.7588
2023-08-26T03:06:01.848Z,982.6277
2023-08-26T03:07:02.968Z,982.8395
2023-08-26T03:08:01.794Z,982.614
2023-08-26T03:09:02.260Z,982.6067
2023-08-26T03:10:03.382Z,982.6727
2023-08-26T03:11:03.819Z,982.614
2023-08-26T03:12:01.603Z,982.4447
2023-08-26T03:13:02.077Z,982.4447
2023-08-26T03:14:03.144Z,982.4877
2023-08-26T03:15:02.002Z,982.4877
2023-08-26T03:16:01.529Z,982.5103
2023-08-26T03:17:03.619Z,982.5553
2023-08-26T03:18:01.590Z,982.614
2023-08-26T03:19:03.474Z,982.4966
2023-08-26T03:20:01.280Z,982.5705
2023-08-26T03:21:01.755Z,982.4981
2023-08-26T03:22:02.242Z,982.6449
2023-08-26T03:23:01.735Z,982.5568
2023-08-26T03:24:02.125Z,982.7036
2023-08-26T03:25:01.601Z,982.8136
2023-08-26T03:26:02.069Z,982.7139
2023-08-26T03:27:01.527Z,982.7364
2023-08-26T03:28:02.011Z,982.6929
2023-08-26T03:29:03.103Z,982.7516
2023-08-26T03:30:01.871Z,982.6939
2023-08-26T03:31:03.032Z,982.7809
2023-08-26T03:32:01.777Z,982.9428
2023-08-26T03:33:03.928Z,982.9066
2023-08-26T03:34:03.366Z,982.9218
2023-08-26T03:35:03.802Z,982.9149
2023-08-26T03:36:03.713Z,983.0616
2023-08-26T03:37:03.142Z,982.8792
2023-08-26T03:38:01.967Z,982.9086
2023-08-26T03:39:03.040Z,982.9374
2023-08-26T03:40:03.469Z,982.9966
2023-08-26T03:41:01.281Z,982.9306
2023-08-26T03:42:01.742Z,982.9892
2023-08-26T03:43:02.233Z,983.108
2023-08-26T03:44:01.643Z,983.196
2023-08-26T03:45:02.166Z,983.2117
2023-08-26T03:46:01.820Z,983.3359
2023-08-26T03:47:02.051Z,983.153
2023-08-26T03:48:01.594Z,983.1237
2023-08-26T03:49:01.955Z,983.1672
2023-08-26T03:50:03.089Z,983.1237
2023-08-26T03:51:01.894Z,983.2552
2023-08-26T03:52:01.335Z,983.2254
2023-08-26T03:53:01.805Z,983.4207
2023-08-26T03:54:02.248Z,983.2185
2023-08-26T03:55:01.691Z,983.2997
2023-08-26T03:56:02.156Z,983.3933
2023-08-26T03:57:01.628Z,983.3791
2023-08-26T03:58:02.104Z,983.3236
2023-08-26T03:59:01.583Z,983.4021
2023-08-26T04:00:02.039Z,983.6
2023-08-26T04:01:03.201Z,983.4465
2023-08-26T04:02:01.909Z,983.512
2023-08-26T04:03:03.062Z,983.5052
2023-08-26T04:04:01.835Z,983.4759
2023-08-26T04:05:01.285Z,983.7398
2023-08-26T04:06:01.728Z,983.776
2023-08-26T04:07:03.816Z,983.4465
2023-08-26T04:08:01.722Z,983.4759
2023-08-26T04:09:03.746Z,983.3586
2023-08-26T04:10:01.597Z,983.3654
2023-08-26T04:11:03.751Z,983.3461
2023-08-26T04:12:01.446Z,983.4671
2023-08-26T04:13:03.539Z,983.3571
2023-08-26T04:14:01.348Z,983.5986
2023-08-26T04:15:03.466Z,983.49
2023-08-26T04:16:02.282Z,983.4759
2023-08-26T04:17:01.715Z,983.4759
2023-08-26T04:18:02.230Z,983.7036
2023-08-26T04:19:03.280Z,983.7036
2023-08-26T04:20:03.750Z,983.7036
2023-08-26T04:21:01.574Z,983.7329
2023-08-26T04:22:02.028Z,983.7036
2023-08-26T04:23:01.484Z,983.7036
2023-08-26T04:24:03.569Z,983.5951
2023-08-26T04:25:01.417Z,983.574
2023-08-26T04:26:01.901Z,983.7138
2023-08-26T04:27:01.389Z,983.6551
2023-08-26T04:28:01.846Z,983.5241
2023-08-26T04:29:02.948Z,983.6927
2023-08-26T04:30:01.900Z,983.7518
2023-08-26T04:31:01.411Z,983.7239
2023-08-26T04:32:03.435Z,983.7532
2023-08-26T04:33:02.344Z,983.6589
2023-08-26T04:34:01.648Z,983.8499
2023-08-26T04:35:02.164Z,983.6608
2023-08-26T04:36:01.589Z,983.6315
2023-08-26T04:37:02.087Z,983.7487
2023-08-26T04:38:03.234Z,983.9539
2023-08-26T04:39:02.031Z,983.9246
2023-08-26T04:40:01.449Z,983.7931
2023-08-26T04:41:03.604Z,983.8156
2023-08-26T04:42:03.012Z,983.757
2023-08-26T04:43:03.528Z,983.9841
2023-08-26T04:44:02.886Z,983.9191
2023-08-26T04:45:01.747Z,983.8756
2023-08-26T04:46:02.269Z,983.8756
2023-08-26T04:47:01.738Z,983.8326
2023-08-26T04:48:02.164Z,983.8033
2023-08-26T04:49:03.242Z,983.8033
2023-08-26T04:50:03.692Z,983.7012
2023-08-26T04:51:01.501Z,983.6513
2023-08-26T04:52:01.992Z,983.5858
2023-08-26T04:53:03.045Z,983.5067
2023-08-26T04:54:03.531Z,983.5443
2023-08-26T04:55:02.941Z,983.677
2023-08-26T04:56:01.900Z,983.553
2023-08-26T04:57:03.835Z,983.4651
2023-08-26T04:58:03.271Z,983.5237
2023-08-26T04:59:02.100Z,983.5755
2023-08-26T05:00:03.213Z,983.6047
2023-08-26T05:01:02.092Z,983.5618
2023-08-26T05:02:01.334Z,983.6789
2023-08-26T05:03:01.944Z,983.613
2023-08-26T05:04:02.964Z,983.6872
2023-08-26T05:05:03.532Z,983.6872
2023-08-26T05:06:02.895Z,983.9078
2023-08-26T05:07:01.909Z,983.9078
2023-08-26T05:08:01.263Z,983.6149
2023-08-26T05:09:03.410Z,983.6735
2023-08-26T05:10:01.269Z,983.6012
2023-08-26T05:11:03.438Z,983.4548
2023-08-26T05:12:01.257Z,983.4548
2023-08-26T05:13:03.478Z,983.6012
2023-08-26T05:14:01.340Z,983.6012
2023-08-26T05:15:02.006Z,983.4026
2023-08-26T05:16:03.108Z,983.4685
2023-08-26T05:17:02.012Z,983.2954
2023-08-26T05:18:01.497Z,983.3806
2023-08-26T05:19:01.974Z,983.2305
2023-08-26T05:20:01.454Z,983.3408
2023-08-26T05:21:01.972Z,983.3601
2023-08-26T05:22:01.481Z,983.3184
2023-08-26T05:23:02.013Z,983.4319
2023-08-26T05:24:03.017Z,983.1719
2023-08-26T05:25:02.108Z,983.3184
2023-08-26T05:26:01.555Z,983.2891
2023-08-26T05:27:02.102Z,983.2442
2023-08-26T05:28:01.598Z,983.2144
2023-08-26T05:29:02.045Z,983.251
2023-08-26T05:30:01.573Z,983.2437
2023-08-26T05:31:03.829Z,983.2579
2023-08-26T05:32:01.594Z,983.1114
2023-08-26T05:33:03.895Z,983.1407
2023-08-26T05:34:01.662Z,983.0821
2023-08-26T05:35:02.114Z,983.0235
2023-08-26T05:36:01.564Z,983.0665
2023-08-26T05:37:03.675Z,982.9943
2023-08-26T05:38:01.467Z,983.0235
2023-08-26T05:39:02.047Z,983.0821
2023-08-26T05:40:01.382Z,983.0372
2023-08-26T05:41:01.988Z,982.9996
2023-08-26T05:42:02.980Z,983.0577
2023-08-26T05:43:01.810Z,983.1236
2023-08-26T05:44:01.256Z,983.1236
2023-08-26T05:45:03.353Z,983.0357
2023-08-26T05:46:02.226Z,983.2252
2023-08-26T05:47:01.626Z,983.1373
2023-08-26T05:48:02.447Z,983.2613
2023-08-26T05:49:03.224Z,983.232
2023-08-26T05:50:03.635Z,983.0699
2023-08-26T05:51:01.490Z,983.2149
2023-08-26T05:52:03.574Z,983.2149
2023-08-26T05:53:04.302Z,983.1046
2023-08-26T05:54:01.816Z,983.1046
2023-08-26T05:55:01.311Z,983.0685
2023-08-26T05:56:01.801Z,983.127
2023-08-26T05:57:02.277Z,983.1046
2023-08-26T05:58:01.752Z,983.1481
2023-08-26T05:59:03.831Z,983.1481
2023-08-26T06:00:01.638Z,983.1823
2023-08-26T06:01:03.743Z,983.1529
2023-08-26T06:02:01.583Z,983.3132
2023-08-26T06:03:03.714Z,983.1959
2023-08-26T06:04:03.256Z,983.1222
2023-08-26T06:05:03.570Z,983.2756
2023-08-26T06:06:03.008Z,983.2463
2023-08-26T06:07:03.447Z,983.1876
2023-08-26T06:08:01.273Z,983.2463
2023-08-26T06:09:01.733Z,983.2448
2023-08-26T06:10:03.798Z,983.2585
2023-08-26T06:11:03.302Z,983.301
2023-08-26T06:12:02.061Z,983.1325
2023-08-26T06:13:01.544Z,983.2185
2023-08-26T06:14:02.034Z,983.108
2023-08-26T06:15:03.870Z,983.0787
2023-08-26T06:16:01.496Z,983.1373
2023-08-26T06:17:02.026Z,983.1652
2023-08-26T06:18:01.490Z,983.2151
2023-08-26T06:19:03.545Z,983.2151
2023-08-26T06:20:03.032Z,983.1857
2023-08-26T06:21:03.442Z,983.1115
2023-08-26T06:22:02.967Z,983.0895
2023-08-26T06:23:03.373Z,983.3011
2023-08-26T06:24:03.814Z,983.0895
2023-08-26T06:25:01.612Z,983.1838
2023-08-26T06:26:02.163Z,983.0513
2023-08-26T06:27:01.507Z,983.065
2023-08-26T06:28:02.121Z,983.0875
2023-08-26T06:29:01.451Z,983.0152
2023-08-26T06:30:03.565Z,983.0372
2023-08-26T06:31:01.390Z,983.1032
2023-08-26T06:32:01.916Z,983.0601
2023-08-26T06:33:01.356Z,983.0958
2023-08-26T06:34:01.822Z,982.8822
2023-08-26T06:35:01.293Z,983.0274
2023-08-26T06:36:01.735Z,983.2689
2023-08-26T06:37:03.843Z,983.2606
2023-08-26T06:38:03.344Z,983.2014
2023-08-26T06:39:03.802Z,983.2606
2023-08-26T06:40:01.587Z,983.0841
2023-08-26T06:41:03.720Z,983.1863
2023-08-26T06:42:01.488Z,983.2797
2023-08-26T06:43:01.973Z,983.2797
2023-08-26T06:44:01.439Z,983.3494
2023-08-26T06:45:03.594Z,983.4668
2023-08-26T06:46:01.354Z,983.4081
2023-08-26T06:47:01.816Z,983.4869
2023-08-26T06:48:01.290Z,983.392
2023-08-26T06:49:03.355Z,983.5456
2023-08-26T06:50:02.177Z,983.4938
2023-08-26T06:51:01.653Z,983.5666
2023-08-26T06:52:02.067Z,983.6111
2023-08-26T06:53:01.562Z,983.508
2023-08-26T06:54:03.637Z,983.5666
2023-08-26T06:55:01.458Z,983.5955
2023-08-26T06:56:03.552Z,983.5354
2023-08-26T06:57:01.362Z,983.5354
2023-08-26T06:58:03.487Z,983.5423
2023-08-26T06:59:01.284Z,983.6078
2023-08-26T07:00:03.370Z,983.5129
2023-08-26T07:01:03.911Z,983.6601
2023-08-26T07:02:01.634Z,983.601
2023-08-26T07:03:02.168Z,983.6734
2023-08-26T07:04:01.625Z,983.534
2023-08-26T07:05:03.670Z,983.7082
2023-08-26T07:06:01.503Z,983.6789
2023-08-26T07:07:01.982Z,983.6344
2023-08-26T07:08:01.382Z,983.655
2023-08-26T07:09:01.907Z,983.9036
2023-08-26T07:10:02.977Z,983.7049
2023-08-26T07:11:03.453Z,983.7412
2023-08-26T07:12:03.318Z,983.7691
2023-08-26T07:13:01.747Z,983.8196
2023-08-26T07:14:02.170Z,983.8108
2023-08-26T07:15:03.250Z,984.1234
2023-08-26T07:16:02.092Z,984.1009
2023-08-26T07:17:01.551Z,983.9457
2023-08-26T07:18:03.656Z,983.8938
2023-08-26T07:19:01.486Z,983.9682
2023-08-26T07:20:01.944Z,983.982
2023-08-26T07:21:01.377Z,984.0182
2023-08-26T07:22:01.964Z,983.965
2023-08-26T07:23:01.327Z,983.9493
2023-08-26T07:24:01.786Z,984.0586
2023-08-26T07:25:01.282Z,983.9705
2023-08-26T07:26:03.384Z,984.1537
2023-08-26T07:27:02.301Z,984.0949
2023-08-26T07:28:01.673Z,984.2125
2023-08-26T07:29:02.148Z,984.1592
2023-08-26T07:30:01.629Z,984.0623
2023-08-26T07:31:02.198Z,984.1716
2023-08-26T07:32:01.505Z,984.1854
2023-08-26T07:33:03.710Z,984.382
2023-08-26T07:34:01.430Z,984.3958
2023-08-26T07:35:01.897Z,984.241
2023-08-26T07:36:02.003Z,984.3664
2023-08-26T07:37:01.884Z,984.4174
2023-08-26T07:38:01.328Z,984.4101
2023-08-26T07:39:03.452Z,984.388
2023-08-26T07:40:02.266Z,984.2998
2023-08-26T07:41:01.726Z,984.3219
2023-08-26T07:42:02.188Z,984.3724
2023-08-26T07:43:01.670Z,984.4239
2023-08-26T07:44:02.106Z,984.4174
2023-08-26T07:45:03.249Z,984.4312
2023-08-26T07:47:01.579Z,984.2755
2023-08-26T07:49:01.477Z,984.3605
2023-08-26T07:50:01.875Z,984.4167
2023-08-26T07:51:01.384Z,984.3716
2023-08-26T07:52:01.839Z,984.5105
2023-08-26T07:53:01.380Z,984.4866
2023-08-26T07:54:01.798Z,984.4416
2023-08-26T07:55:02.285Z,984.587
2023-08-26T07:56:01.701Z,984.4969
2023-08-26T07:57:03.833Z,984.3189
2023-08-26T07:58:01.641Z,984.295
2023-08-26T07:59:02.119Z,984.1841
2023-08-26T08:00:01.623Z,984.4183
2023-08-26T08:01:03.802Z,984.3282
2023-08-26T08:02:01.512Z,984.4515
2023-08-26T08:03:02.193Z,984.3774
2023-08-26T08:04:03.144Z,984.4948
2023-08-26T08:05:03.512Z,984.4134
2023-08-26T08:06:01.354Z,984.4364
2023-08-26T08:07:03.426Z,984.348
2023-08-26T08:08:02.252Z,984.3337
2023-08-26T08:09:03.347Z,984.4203
2023-08-26T08:10:02.153Z,984.2886
2023-08-26T08:11:03.225Z,984.2578
2023-08-26T08:12:03.678Z,984.3665
2023-08-26T08:13:01.508Z,984.4742
2023-08-26T08:14:01.942Z,984.3325
2023-08-26T08:15:01.438Z,984.6595
2023-08-26T08:16:01.947Z,984.3648
2023-08-26T08:17:01.974Z,984.5794
2023-08-26T08:18:03.105Z,984.3648
2023-08-26T08:19:02.087Z,984.4237
2023-08-26T08:20:01.327Z,984.3054
2023-08-26T08:21:01.818Z,984.3648
2023-08-26T08:22:02.223Z,984.2312
2023-08-26T08:23:01.713Z,984.3418
2023-08-26T08:24:02.144Z,984.3058
2023-08-26T08:25:01.684Z,984.1317
2023-08-26T08:26:02.116Z,984.3537
2023-08-26T08:27:01.564Z,984.3537
2023-08-26T08:28:02.050Z,984.4264
2023-08-26T08:29:01.499Z,984.3537
2023-08-26T08:30:02.072Z,984.4628
2023-08-26T08:31:03.116Z,984.543
2023-08-26T08:32:01.906Z,984.1179
2023-08-26T08:33:01.697Z,984.4264
2023-08-26T08:34:01.857Z,984.3537
2023-08-26T08:35:01.307Z,984.3463
2023-08-26T08:36:01.832Z,984.0953
2023-08-26T08:37:02.297Z,984.3072
2023-08-26T08:38:01.712Z,984.2225
2023-08-26T08:39:02.230Z,984.1396
2023-08-26T08:40:01.659Z,984.2197
2023-08-26T08:41:03.780Z,984.2174
2023-08-26T08:42:03.193Z,984.3128
2023-08-26T08:43:03.727Z,984.2903
2023-08-26T08:44:01.487Z,984.3115
2023-08-26T08:45:03.588Z,984.2212
2023-08-26T08:46:03.049Z,984.3235
2023-08-26T08:47:03.579Z,984.3096
2023-08-26T08:48:01.400Z,984.2875
2023-08-26T08:49:01.850Z,984.4766
2023-08-26T08:50:02.872Z,984.3083
2023-08-26T08:51:01.719Z,984.258
2023-08-26T08:52:03.792Z,984.3322
2023-08-26T08:53:01.652Z,984.3686
2023-08-26T08:54:02.126Z,984.3981
2023-08-26T08:55:01.569Z,984.5023
2023-08-26T08:56:02.064Z,984.6203
2023-08-26T08:57:03.869Z,984.6536
2023-08-26T08:58:01.428Z,984.4839
2023-08-26T08:59:01.974Z,984.5794
2023-08-26T09:00:03.019Z,984.602
2023-08-26T09:01:01.859Z,984.6536
2023-08-26T09:02:01.330Z,984.53
2023-08-26T09:03:03.411Z,984.6567
2023-08-26T09:04:03.874Z,984.6386
2023-08-26T09:05:03.316Z,984.5537
2023-08-26T09:06:03.796Z,984.8264
2023-08-26T09:07:01.603Z,984.7086
2023-08-26T09:08:02.047Z,984.6736
2023-08-26T09:09:01.510Z,984.5575
2023-08-26T09:10:03.058Z,984.6008
2023-08-26T09:11:01.403Z,984.6441
2023-08-26T09:12:01.919Z,984.6303
2023-08-26T09:13:02.984Z,984.6021
2023-08-26T09:14:03.498Z,984.6611
2023-08-26T09:15:02.956Z,984.6265
2023-08-26T09:16:01.731Z,984.7717
2023-08-26T09:17:02.180Z,984.6916
2023-08-26T09:18:01.965Z,984.8401
2023-08-26T09:19:02.485Z,984.7968
2023-08-26T09:20:01.596Z,984.8401
2023-08-26T09:21:02.015Z,984.7185
2023-08-26T09:22:01.457Z,984.7047
2023-08-26T09:23:01.972Z,984.7636
2023-08-26T09:24:01.454Z,984.7324
2023-08-26T09:25:01.949Z,984.8751
2023-08-26T09:26:01.301Z,984.8024
2023-08-26T09:27:01.802Z,984.7324
2023-08-26T09:28:02.241Z,984.8388
2023-08-26T09:29:03.333Z,984.6791
2023-08-26T09:30:03.827Z,984.5794
2023-08-26T09:31:03.302Z,984.5499
2023-08-26T09:32:02.048Z,984.5399
2023-08-26T09:33:03.171Z,984.5501
2023-08-26T09:34:03.553Z,984.668
2023-08-26T09:35:03.174Z,984.6272
2023-08-26T09:37:01.280Z,984.6595
2023-08-26T09:38:01.774Z,984.7545
2023-08-26T09:39:03.841Z,984.5104
2023-08-26T09:40:01.687Z,984.5298
2023-08-26T09:41:03.791Z,984.4981
2023-08-26T09:42:01.606Z,984.5193
2023-08-26T09:43:03.674Z,984.616
2023-08-26T09:44:03.160Z,984.5852
2023-08-26T09:45:01.955Z,984.6185
2023-08-26T09:46:01.428Z,984.5356
2023-08-26T09:47:01.947Z,984.5103
2023-08-26T09:48:01.625Z,984.4808
2023-08-26T09:49:01.784Z,984.4808
2023-08-26T09:50:02.240Z,984.7012
2023-08-26T09:51:03.350Z,984.7377
2023-08-26T09:52:02.194Z,984.4877
2023-08-26T09:53:01.687Z,984.4877
2023-08-26T09:54:02.082Z,984.4707
2023-08-26T09:55:03.205Z,984.6811
2023-08-26T09:56:02.095Z,984.4432
2023-08-26T09:57:03.182Z,984.5046
2023-08-26T09:58:01.946Z,984.4946
2023-08-26T09:59:01.403Z,984.382
2023-08-26T10:00:01.891Z,984.3857
2023-08-26T10:01:02.997Z,984.66
2023-08-26T10:02:01.887Z,984.5557
2023-08-26T10:03:01.395Z,984.5303
2023-08-26T10:04:01.805Z,984.5467
2023-08-26T10:05:02.309Z,984.5574
2023-08-26T10:06:01.706Z,984.57
2023-08-26T10:07:03.840Z,984.5617
2023-08-26T10:08:01.664Z,984.5303
2023-08-26T10:09:03.779Z,984.5404
2023-08-26T10:10:03.217Z,984.4391
2023-08-26T10:11:03.668Z,984.5561
2023-08-26T10:12:01.464Z,984.744
2023-08-26T10:13:01.957Z,984.6737
2023-08-26T10:14:01.413Z,984.6007
2023-08-26T10:15:01.902Z,984.4062
2023-08-26T10:16:03.917Z,984.568
2023-08-26T10:17:03.627Z,984.4135
2023-08-26T10:18:01.407Z,984.5404
2023-08-26T10:19:01.847Z,984.4531
2023-08-26T10:20:01.360Z,984.4849
2023-08-26T10:21:01.800Z,984.6253
2023-08-26T10:22:02.934Z,984.4097
2023-08-26T10:23:01.811Z,984.6208
2023-08-26T10:24:02.198Z,984.6208
2023-08-26T10:25:01.688Z,984.4694
2023-08-26T10:26:02.123Z,984.4768
2023-08-26T10:27:03.254Z,984.6007
2023-08-26T10:28:03.707Z,984.6737
2023-08-26T10:29:01.500Z,984.5151
2023-08-26T10:30:02.013Z,984.5429
2023-08-26T10:31:01.465Z,984.426
2023-08-26T10:32:03.617Z,984.5599
2023-08-26T10:33:01.408Z,984.5026
2023-08-26T10:34:03.484Z,984.4272
2023-08-26T10:35:01.328Z,984.465
2023-08-26T10:36:01.858Z,984.3524
2023-08-26T10:37:01.258Z,984.4355
2023-08-26T10:38:01.765Z,984.2148
2023-08-26T10:39:02.190Z,984.2809
2023-08-26T10:40:01.678Z,984.1765
2023-08-26T10:41:02.184Z,984.081
2023-08-26T10:42:03.238Z,984.2024
2023-08-26T10:43:02.093Z,984.25
2023-08-26T10:44:03.256Z,984.1844
2023-08-26T10:45:03.753Z,984.2071
2023-08-26T10:46:01.600Z,984.25
2023-08-26T10:47:02.045Z,984.0177
2023-08-26T10:48:01.727Z,984.0981
2023-08-26T10:49:03.555Z,984.0685
2023-08-26T10:50:03.109Z,984.0768
2023-08-26T10:51:01.909Z,984.2034
2023-08-26T10:52:01.360Z,984.1443
2023-08-26T10:53:01.841Z,984.0108
2023-08-26T10:54:01.293Z,984.068
2023-08-26T10:55:03.401Z,983.9955
2023-08-26T10:56:02.268Z,984.1064
2023-08-26T10:57:02.354Z,984.0403
2023-08-26T10:58:02.506Z,984.2329
2023-08-26T10:59:01.627Z,984.2939
2023-08-26T11:00:03.706Z,984.25
2023-08-26T11:01:01.583Z,984.25
2023-08-26T11:02:01.972Z,984.177
2023-08-26T11:03:03.212Z,984.1479
2023-08-26T11:04:01.882Z,984.0972
2023-08-26T11:05:03.057Z,984.0972
2023-08-26T11:06:03.529Z,984.2957
2023-08-26T11:07:02.943Z,984.2237
2023-08-26T11:08:01.777Z,984.1872
2023-08-26T11:09:03.906Z,984.2615
2023-08-26T11:10:01.717Z,984.2532
2023-08-26T11:11:03.808Z,984.1775
2023-08-26T11:12:03.268Z,984.177
2023-08-26T11:13:02.107Z,984.3378
2023-08-26T11:14:03.189Z,984.2939
2023-08-26T11:15:03.676Z,984.1304
2023-08-26T11:16:03.114Z,984.0122
2023-08-26T11:17:03.509Z,984.0126
2023-08-26T11:18:01.545Z,984.1152
2023-08-26T11:19:03.458Z,984.2939
2023-08-26T11:20:02.260Z,984.3844
2023-08-26T11:21:03.387Z,984.069
2023-08-26T11:22:03.766Z,984.2777
2023-08-26T11:23:03.259Z,984.2343
2023-08-26T11:24:02.050Z,984.2933
2023-08-26T11:25:01.546Z,984.1696
2023-08-26T11:26:03.663Z,984.1613
2023-08-26T11:27:03.137Z,984.1733
2023-08-26T11:28:03.530Z,984.1646
2023-08-26T11:29:01.367Z,984.3797
2023-08-26T11:30:01.828Z,984.1142
2023-08-26T11:31:02.947Z,984.0902
2023-08-26T11:32:01.757Z,984.0574
2023-08-26T11:33:03.889Z,983.9983
2023-08-26T11:34:01.599Z,984.0177
2023-08-26T11:35:03.737Z,984.0075
2023-08-26T11:36:09.420Z,984.0528
2023-08-26T11:37:02.018Z,984.1383
2023-08-26T11:38:03.155Z,984.0269
2023-08-26T11:39:03.593Z,984.1716
2023-08-26T11:40:01.330Z,983.9904
2023-08-26T11:41:03.439Z,984.02
2023-08-26T11:42:03.851Z,984.2307
2023-08-26T11:43:01.689Z,984.0657
2023-08-26T11:44:02.126Z,984.0907
2023-08-26T11:45:01.659Z,984.1836
2023-08-26T11:46:02.154Z,983.957
2023-08-26T11:47:03.180Z,983.882
2023-08-26T11:48:02.088Z,983.9186
2023-08-26T11:49:01.456Z,983.8579
2023-08-26T11:50:01.887Z,983.8075
2023-08-26T11:51:01.357Z,983.9736